Time;durP1;ratioP1;P1;durP2;ratioP2;P2;SDS_P1;SDS_P2;PMS_P1;PMS_P2;Temp;Humidity;BMP_temperature;BMP_pressure;BME280_temperature;BME280_humidity;BME280_pressure;Samples;Min_cycle;Max_cycle;Signal;HPM_P1;HPM_P2
2023/08/18 00:02:08;;;;;;;4.47;3.38;;;21.90;99.90;;;;;;5014424;28;20026;-39
2023/08/18 00:04:34;;;;;;;7.63;3.55;;;21.90;99.90;;;;;;5014091;28;20108;-42
2023/08/18 00:07:00;;;;;;;4.50;3.95;;;21.90;99.90;;;;;;5013483;28;20069;-42
2023/08/18 00:09:25;;;;;;;4.63;4.05;;;21.90;99.90;;;;;;5014069;28;20022;-37
2023/08/18 00:11:51;;;;;;;4.40;4.00;;;21.90;99.90;;;;;;5014256;28;20031;-39
2023/08/18 00:14:16;;;;;;;4.85;4.25;;;21.90;99.90;;;;;;5014046;28;20026;-41
2023/08/18 00:16:42;;;;;;;3.90;3.60;;;21.90;99.90;;;;;;5014030;28;20531;-40
2023/08/18 00:19:08;;;;;;;7.35;3.72;;;21.90;99.90;;;;;;5014045;28;20095;-40
2023/08/18 00:21:34;;;;;;;5.90;3.80;;;21.90;99.90;;;;;;5013741;28;20116;-39
2023/08/18 00:23:59;;;;;;;4.25;3.50;;;21.90;99.90;;;;;;5013799;28;20026;-38
2023/08/18 00:26:25;;;;;;;7.70;3.95;;;21.90;99.90;;;;;;5013860;28;20022;-42
2023/08/18 00:28:50;;;;;;;5.78;3.80;;;21.90;99.90;;;;;;5013862;28;20022;-41
2023/08/18 00:31:16;;;;;;;8.77;3.80;;;21.90;99.90;;;;;;5013613;28;20623;-39
2023/08/18 00:33:42;;;;;;;5.05;3.70;;;21.90;99.90;;;;;;5013667;28;20025;-40
2023/08/18 00:36:07;;;;;;;4.78;4.00;;;21.90;99.90;;;;;;5013554;28;20030;-41
2023/08/18 00:38:33;;;;;;;4.10;3.67;;;21.90;99.90;;;;;;5013623;28;20372;-41
2023/08/18 00:40:58;;;;;;;4.40;3.67;;;21.80;99.90;;;;;;5013390;28;20068;-42
2023/08/18 00:43:24;;;;;;;6.22;3.25;;;21.80;99.90;;;;;;5013400;28;20129;-43
2023/08/18 00:45:52;;;;;;;6.03;3.90;;;21.80;99.90;;;;;;5013513;28;20041;-39
2023/08/18 00:48:17;;;;;;;5.43;4.00;;;21.80;99.90;;;;;;5013449;28;20052;-39
2023/08/18 00:50:44;;;;;;;4.88;3.90;;;21.80;99.90;;;;;;5013025;28;20054;-42
2023/08/18 00:53:10;;;;;;;4.70;3.83;;;21.80;99.90;;;;;;5013304;28;20018;-41
2023/08/18 00:55:36;;;;;;;4.15;3.50;;;21.80;99.90;;;;;;5013805;28;20411;-40
2023/08/18 00:58:03;;;;;;;4.63;3.55;;;21.80;99.90;;;;;;5013254;28;20105;-40
2023/08/18 01:00:29;;;;;;;5.07;3.90;;;21.80;99.90;;;;;;5013271;28;20153;-39
2023/08/18 01:02:55;;;;;;;3.97;3.58;;;21.80;99.90;;;;;;5013117;28;20026;-39
2023/08/18 01:05:21;;;;;;;5.35;3.80;;;21.80;99.90;;;;;;5012897;28;20033;-40
2023/08/18 01:07:46;;;;;;;6.85;3.53;;;21.80;99.90;;;;;;5013389;28;20026;-40
2023/08/18 01:10:13;;;;;;;3.78;3.40;;;21.80;99.90;;;;;;5012773;28;20144;-37
2023/08/18 01:12:51;;;;;;;5.28;3.65;;;21.80;99.90;;;;;;5012886;28;20029;-41
2023/08/18 01:15:32;;;;;;;5.22;4.00;;;21.80;99.90;;;;;;5013013;28;20033;-39
2023/08/18 01:18:03;;;;;;;9.95;3.80;;;21.80;99.90;;;;;;5012430;28;20164;-38
2023/08/18 01:20:29;;;;;;;6.07;3.67;;;21.80;99.90;;;;;;5012584;28;20040;-37
2023/08/18 01:23:01;;;;;;;6.90;3.95;;;21.80;99.90;;;;;;5012952;28;20371;-44
2023/08/18 01:25:28;;;;;;;4.53;3.50;;;21.80;99.90;;;;;;5012694;28;20502;-39
2023/08/18 01:27:55;;;;;;;5.57;3.97;;;21.80;99.90;;;;;;5012714;28;20522;-37
2023/08/18 01:30:37;;;;;;;3.92;3.20;;;21.80;99.90;;;;;;5012285;28;20064;-40
2023/08/18 01:33:22;;;;;;;6.60;3.60;;;21.80;99.90;;;;;;5012666;28;20480;-41
2023/08/18 01:35:49;;;;;;;5.03;3.55;;;21.80;99.90;;;;;;5012830;28;20077;-40
2023/08/18 01:38:16;;;;;;;5.28;3.63;;;21.80;99.90;;;;;;5013042;28;20361;-38
2023/08/18 01:40:42;;;;;;;6.95;3.75;;;21.80;99.90;;;;;;5012128;28;20018;-38
2023/08/18 01:43:08;;;;;;;4.90;3.92;;;21.80;99.90;;;;;;5012628;28;20026;-40
2023/08/18 01:45:36;;;;;;;6.22;3.40;;;21.80;99.90;;;;;;5012339;28;20022;-42
2023/08/18 01:48:02;;;;;;;5.15;3.75;;;21.80;99.90;;;;;;5012543;28;20028;-36
2023/08/18 01:50:27;;;;;;;4.95;3.58;;;21.80;99.90;;;;;;5012404;28;20089;-41
2023/08/18 01:52:53;;;;;;;4.00;3.50;;;21.80;99.90;;;;;;5012301;28;20129;-44
2023/08/18 01:55:19;;;;;;;4.40;3.53;;;21.80;99.90;;;;;;5012178;28;20022;-39
2023/08/18 01:57:44;;;;;;;4.70;3.90;;;21.80;99.90;;;;;;5012113;28;20026;-40
2023/08/18 02:00:10;;;;;;;4.25;3.63;;;21.80;99.90;;;;;;5011871;28;20065;-42
2023/08/18 02:02:36;;;;;;;5.50;4.00;;;21.80;99.90;;;;;;5012089;28;20040;-40
2023/08/18 02:05:02;;;;;;;4.47;3.88;;;21.80;99.90;;;;;;5012001;28;20096;-36
2023/08/18 02:07:27;;;;;;;3.83;3.53;;;21.80;99.90;;;;;;5012041;28;20471;-40
2023/08/18 02:09:53;;;;;;;3.65;3.35;;;21.80;99.90;;;;;;5011656;28;20029;-40
2023/08/18 02:12:18;;;;;;;5.72;3.65;;;21.80;99.90;;;;;;5011923;28;20022;-43
2023/08/18 02:14:44;;;;;;;6.22;3.53;;;21.70;99.90;;;;;;5011944;28;20666;-39
2023/08/18 02:17:10;;;;;;;5.55;3.80;;;21.70;99.90;;;;;;5011923;28;20506;-41
2023/08/18 02:19:35;;;;;;;8.25;4.47;;;21.80;99.90;;;;;;5011556;28;20107;-44
2023/08/18 02:22:01;;;;;;;4.90;4.00;;;21.80;99.90;;;;;;5011859;28;20022;-37
2023/08/18 02:24:27;;;;;;;6.55;3.83;;;21.80;99.90;;;;;;5011599;28;20026;-42
2023/08/18 02:26:52;;;;;;;4.80;3.60;;;21.80;99.90;;;;;;5012010;28;20527;-37
2023/08/18 02:29:18;;;;;;;4.75;3.80;;;21.70;99.90;;;;;;5010924;28;20033;-41
2023/08/18 02:31:43;;;;;;;8.38;3.88;;;21.70;99.90;;;;;;5011721;28;20025;-41
2023/08/18 02:34:09;;;;;;;4.03;3.50;;;21.70;99.90;;;;;;5011683;28;20033;-40
2023/08/18 02:36:35;;;;;;;4.00;3.60;;;21.80;99.90;;;;;;5011704;28;20053;-40
2023/08/18 02:39:02;;;;;;;4.65;3.70;;;21.70;99.90;;;;;;5011371;28;20204;-41
2023/08/18 02:41:27;;;;;;;8.90;3.47;;;21.70;99.90;;;;;;5011730;28;20498;-41
2023/08/18 02:43:53;;;;;;;4.43;3.70;;;21.70;99.90;;;;;;5011486;28;20030;-40
2023/08/18 02:46:19;;;;;;;6.15;3.97;;;21.70;99.90;;;;;;5011997;28;20026;-40
2023/08/18 02:48:44;;;;;;;5.35;3.60;;;21.70;99.90;;;;;;5011368;28;20018;-40
2023/08/18 02:51:10;;;;;;;4.80;3.80;;;21.70;99.90;;;;;;5011328;28;20491;-39
2023/08/18 02:53:39;;;;;;;5.47;3.78;;;21.70;99.90;;;;;;5011351;28;20068;-42
2023/08/18 02:56:05;;;;;;;4.78;3.75;;;21.70;99.90;;;;;;5011382;28;20033;-40
2023/08/18 02:58:33;;;;;;;4.03;3.63;;;21.70;99.90;;;;;;5011346;28;20079;-41
2023/08/18 03:01:05;;;;;;;8.35;4.00;;;21.70;99.90;;;;;;5011122;28;20029;-40
2023/08/18 03:03:30;;;;;;;5.95;4.18;;;21.70;99.90;;;;;;5011287;28;20030;-39
2023/08/18 03:06:04;;;;;;;6.70;4.18;;;21.70;99.90;;;;;;5011352;28;20029;-37
2023/08/18 03:08:30;;;;;;;3.72;3.40;;;21.70;99.90;;;;;;5011252;28;20483;-38
2023/08/18 03:10:57;;;;;;;4.20;3.80;;;21.70;99.90;;;;;;5011241;28;20522;-38
2023/08/18 03:13:23;;;;;;;4.35;3.95;;;21.70;99.90;;;;;;5011645;28;20133;-37
2023/08/18 03:15:49;;;;;;;8.00;3.80;;;21.70;99.90;;;;;;5011255;28;20046;-39
2023/08/18 03:18:15;;;;;;;8.73;3.95;;;21.70;99.90;;;;;;5011662;28;20487;-46
2023/08/18 03:20:41;;;;;;;4.25;3.83;;;21.70;99.90;;;;;;5010842;28;20058;-45
2023/08/18 03:23:07;;;;;;;4.97;3.72;;;21.70;99.90;;;;;;5011192;28;20407;-42
2023/08/18 03:25:33;;;;;;;4.32;3.70;;;21.70;99.90;;;;;;5011006;28;20048;-39
2023/08/18 03:27:58;;;;;;;5.53;3.90;;;21.60;99.90;;;;;;5011324;28;20032;-44
2023/08/18 03:30:24;;;;;;;5.03;3.72;;;21.60;99.90;;;;;;5010813;28;20038;-40
2023/08/18 03:32:52;;;;;;;5.75;3.92;;;21.60;99.90;;;;;;5011086;28;20019;-40
2023/08/18 03:35:17;;;;;;;4.47;3.88;;;21.60;99.90;;;;;;5011509;28;20390;-45
2023/08/18 03:37:43;;;;;;;7.22;3.78;;;21.60;99.90;;;;;;5011040;28;20113;-39
2023/08/18 03:40:09;;;;;;;5.45;3.83;;;21.60;99.90;;;;;;5012606;28;20032;-40
2023/08/18 03:42:34;;;;;;;4.05;3.65;;;21.60;99.90;;;;;;5014634;28;20092;-40
2023/08/18 03:45:00;;;;;;;4.60;3.72;;;21.60;99.90;;;;;;5014767;28;20036;-37
2023/08/18 03:47:26;;;;;;;7.63;3.47;;;21.60;99.90;;;;;;5014593;28;20097;-40
2023/08/18 03:49:51;;;;;;;4.95;3.45;;;21.60;99.90;;;;;;5014150;28;20022;-41
2023/08/18 03:52:17;;;;;;;5.43;3.47;;;21.60;99.90;;;;;;4996902;28;20026;-43
2023/08/18 03:54:43;;;;;;;5.18;3.63;;;21.60;99.90;;;;;;5014466;28;20061;-37
2023/08/18 03:57:08;;;;;;;6.68;3.30;;;21.60;99.90;;;;;;5014481;28;20053;-42
2023/08/18 03:59:34;;;;;;;4.70;3.72;;;21.60;99.90;;;;;;5014164;28;20030;-40
2023/08/18 04:01:59;;;;;;;4.07;3.30;;;21.60;99.90;;;;;;5014339;28;20475;-41
2023/08/18 04:04:25;;;;;;;4.00;3.40;;;21.60;99.90;;;;;;5014643;28;20030;-38
2023/08/18 04:06:51;;;;;;;3.78;3.38;;;21.60;99.90;;;;;;5014277;28;20434;-46
2023/08/18 04:09:16;;;;;;;3.70;3.40;;;21.60;99.90;;;;;;5013887;28;20028;-42
2023/08/18 04:11:43;;;;;;;4.88;3.15;;;21.60;99.90;;;;;;5014155;28;20018;-41
2023/08/18 04:14:09;;;;;;;3.92;3.03;;;21.60;99.90;;;;;;5014092;28;20113;-37
2023/08/18 04:16:35;;;;;;;3.58;3.28;;;21.60;99.90;;;;;;5014265;28;20447;-37
2023/08/18 04:19:01;;;;;;;3.42;3.08;;;21.60;99.90;;;;;;4996157;28;20144;-41
2023/08/18 04:21:27;;;;;;;4.20;3.10;;;21.60;99.90;;;;;;5014005;28;20041;-39
2023/08/18 04:23:53;;;;;;;3.95;3.17;;;21.60;99.90;;;;;;5013763;28;20476;-39
2023/08/18 04:26:19;;;;;;;3.50;3.20;;;21.60;99.90;;;;;;4996251;28;20036;-41
2023/08/18 04:28:46;;;;;;;4.78;3.00;;;21.60;99.90;;;;;;5013762;28;20030;-41
2023/08/18 04:31:12;;;;;;;3.30;2.97;;;21.60;99.90;;;;;;4979894;28;20506;-43
2023/08/18 04:33:38;;;;;;;4.15;3.30;;;21.60;99.90;;;;;;5013617;28;20026;-39
2023/08/18 04:36:04;;;;;;;3.53;3.15;;;21.60;99.90;;;;;;5013707;28;20045;-38
2023/08/18 04:38:30;;;;;;;3.72;3.28;;;21.60;99.90;;;;;;5013766;28;20026;-36
2023/08/18 04:41:00;;;;;;;5.15;2.97;;;21.60;99.90;;;;;;5013314;28;20486;-40
2023/08/18 04:43:27;;;;;;;3.75;3.17;;;21.50;99.90;;;;;;5013585;28;20388;-40
2023/08/18 04:45:53;;;;;;;3.95;3.25;;;21.50;99.90;;;;;;5013491;28;20495;-39
2023/08/18 04:48:23;;;;;;;4.35;3.30;;;21.60;99.90;;;;;;5013332;28;20033;-40
2023/08/18 04:50:49;;;;;;;4.05;3.58;;;21.60;99.90;;;;;;5012755;28;20038;-41
2023/08/18 04:53:15;;;;;;;5.63;3.50;;;21.50;99.90;;;;;;5013026;28;20029;-41
2023/08/18 04:55:41;;;;;;;3.75;3.28;;;21.60;99.90;;;;;;5013530;28;20025;-36
2023/08/18 04:58:12;;;;;;;4.30;3.28;;;21.50;99.90;;;;;;5013321;28;20105;-40
2023/08/18 05:00:44;;;;;;;6.30;3.20;;;21.60;99.90;;;;;;5012958;28;20422;-36
2023/08/18 05:03:10;;;;;;;3.30;3.00;;;21.50;99.90;;;;;;5013459;28;20026;-40
2023/08/18 05:05:45;;;;;;;4.20;2.85;;;21.60;99.90;;;;;;5013009;28;20491;-41
2023/08/18 05:08:11;;;;;;;2.83;2.63;;;21.50;99.90;;;;;;5013232;28;20030;-42
2023/08/18 05:10:36;;;;;;;3.85;3.42;;;21.50;99.90;;;;;;5012835;28;20149;-41
2023/08/18 05:13:02;;;;;;;3.45;2.90;;;21.50;99.90;;;;;;5013044;28;20109;-42
2023/08/18 05:15:27;;;;;;;5.13;3.50;;;21.50;99.90;;;;;;5012963;28;20260;-40
2023/08/18 05:17:53;;;;;;;3.17;2.85;;;21.50;99.90;;;;;;5012888;28;20457;-39
2023/08/18 05:20:19;;;;;;;3.83;3.30;;;21.50;99.90;;;;;;5012602;28;20032;-40
2023/08/18 05:22:44;;;;;;;4.60;2.97;;;21.50;99.90;;;;;;5012809;28;20029;-42
2023/08/18 05:25:10;;;;;;;3.67;2.88;;;21.50;99.90;;;;;;5012849;28;20026;-40
2023/08/18 05:27:37;;;;;;;3.35;3.03;;;21.50;99.90;;;;;;5013005;28;20356;-44
2023/08/18 05:30:04;;;;;;;5.88;3.38;;;21.50;99.90;;;;;;5012460;28;20030;-40
2023/08/18 05:32:30;;;;;;;3.50;2.90;;;21.50;99.90;;;;;;5012834;28;20095;-36
2023/08/18 05:34:56;;;;;;;4.20;3.03;;;21.50;99.90;;;;;;5012877;28;20418;-40
2023/08/18 05:37:23;;;;;;;3.22;2.92;;;21.50;99.90;;;;;;5012521;28;20025;-39
2023/08/18 05:39:49;;;;;;;4.85;2.72;;;21.50;99.90;;;;;;5012221;28;20160;-39
2023/08/18 05:42:15;;;;;;;5.00;3.30;;;21.50;99.90;;;;;;5012368;28;20096;-40
2023/08/18 05:44:42;;;;;;;5.53;2.90;;;21.50;99.90;;;;;;5012312;28;20026;-42
2023/08/18 05:47:08;;;;;;;4.70;2.95;;;21.50;99.90;;;;;;5012384;28;20168;-40
2023/08/18 05:49:33;;;;;;;3.53;3.05;;;21.50;99.90;;;;;;5012096;28;20069;-39
2023/08/18 05:51:59;;;;;;;4.32;2.85;;;21.50;99.90;;;;;;4994664;28;20432;-40
2023/08/18 05:54:26;;;;;;;4.30;2.97;;;21.50;99.90;;;;;;5012682;28;20529;-40
2023/08/18 05:56:51;;;;;;;3.58;2.50;;;21.50;99.90;;;;;;5012485;28;20373;-39
2023/08/18 05:59:17;;;;;;;4.28;3.35;;;21.50;99.90;;;;;;5011552;28;20048;-46
2023/08/18 06:01:42;;;;;;;4.13;3.00;;;21.50;99.90;;;;;;5012341;28;20076;-40
2023/08/18 06:04:08;;;;;;;3.88;2.78;;;21.50;99.90;;;;;;5012063;28;20041;-43
2023/08/18 06:06:34;;;;;;;4.22;2.80;;;21.50;99.90;;;;;;5012175;28;20018;-43
2023/08/18 06:09:01;;;;;;;4.05;3.00;;;21.50;99.90;;;;;;5012314;28;20427;-44
2023/08/18 06:11:27;;;;;;;3.33;2.92;;;21.50;99.90;;;;;;5012018;28;20056;-39
2023/08/18 06:13:52;;;;;;;4.60;3.05;;;21.50;99.90;;;;;;5012400;28;20033;-45
2023/08/18 06:16:18;;;;;;;4.25;2.75;;;21.50;99.90;;;;;;5012063;28;20399;-41
2023/08/18 06:18:44;;;;;;;5.60;3.30;;;21.50;99.90;;;;;;5011807;28;20034;-39
2023/08/18 06:21:09;;;;;;;3.25;2.95;;;21.50;99.90;;;;;;5011862;28;20026;-39
2023/08/18 06:23:36;;;;;;;4.75;2.88;;;21.50;99.90;;;;;;5011800;28;20434;-43
2023/08/18 06:26:01;;;;;;;7.03;3.40;;;21.50;99.90;;;;;;5011756;28;20018;-41
2023/08/18 06:28:27;;;;;;;4.28;2.90;;;21.50;99.90;;;;;;5011704;28;20109;-36
2023/08/18 06:30:53;;;;;;;4.43;2.78;;;21.50;99.90;;;;;;5011351;28;20400;-37
2023/08/18 06:33:19;;;;;;;6.03;2.90;;;21.50;99.90;;;;;;5011834;28;20506;-42
2023/08/18 06:35:48;;;;;;;9.10;3.20;;;21.50;99.90;;;;;;5011620;28;20068;-40
2023/08/18 06:38:13;;;;;;;8.40;3.05;;;21.50;99.90;;;;;;5011651;28;20030;-40
2023/08/18 06:40:43;;;;;;;6.63;3.20;;;21.50;99.90;;;;;;5011301;28;20033;-36
2023/08/18 06:43:08;;;;;;;3.05;2.75;;;21.50;99.90;;;;;;5011835;28;20022;-41
2023/08/18 06:45:34;;;;;;;6.95;2.97;;;21.50;99.90;;;;;;5011905;28;20026;-37
2023/08/18 06:47:59;;;;;;;3.88;2.83;;;21.50;99.90;;;;;;5011808;28;20483;-40
2023/08/18 06:50:25;;;;;;;6.05;2.45;;;21.50;99.90;;;;;;5011202;28;20109;-41
2023/08/18 06:52:51;;;;;;;4.43;3.20;;;21.50;99.90;;;;;;5011429;28;20025;-41
2023/08/18 06:55:16;;;;;;;4.20;2.72;;;21.50;99.90;;;;;;5011405;28;20522;-40
2023/08/18 06:57:42;;;;;;;4.15;2.50;;;21.50;99.90;;;;;;5011437;28;20077;-41
2023/08/18 07:00:09;;;;;;;4.30;2.65;;;21.50;99.90;;;;;;5011672;28;20733;-39
2023/08/18 07:02:35;;;;;;;5.25;2.80;;;21.60;99.90;;;;;;4993772;28;20108;-39
2023/08/18 07:05:05;;;;;;;7.05;2.70;;;21.60;99.90;;;;;;5011208;28;20133;-41
2023/08/18 07:07:33;;;;;;;4.10;2.60;;;21.60;99.90;;;;;;5011325;28;20454;-41
2023/08/18 07:09:58;;;;;;;4.43;3.05;;;21.60;99.90;;;;;;5010947;28;20458;-37
2023/08/18 07:12:24;;;;;;;3.88;2.55;;;21.60;99.90;;;;;;5011370;28;20034;-40
2023/08/18 07:14:50;;;;;;;5.53;2.42;;;21.60;99.90;;;;;;5012800;28;20021;-39
2023/08/18 07:17:15;;;;;;;3.03;2.50;;;21.60;99.90;;;;;;5015260;28;20084;-45
2023/08/18 07:19:41;;;;;;;3.78;2.42;;;21.60;99.90;;;;;;5014873;28;20368;-36
2023/08/18 07:22:07;;;;;;;2.97;2.67;;;21.60;99.90;;;;;;5015170;28;20033;-39
2023/08/18 07:24:33;;;;;;;5.35;2.88;;;21.60;99.90;;;;;;5014940;28;20033;-40
2023/08/18 07:26:59;;;;;;;9.40;2.72;;;21.60;99.90;;;;;;5015321;28;20029;-39
2023/08/18 07:29:24;;;;;;;7.55;2.45;;;21.60;99.90;;;;;;5014604;28;20487;-44
2023/08/18 07:31:50;;;;;;;5.65;2.97;;;21.60;99.90;;;;;;5015020;28;20093;-40
2023/08/18 07:34:15;;;;;;;5.93;2.97;;;21.60;99.90;;;;;;5014824;28;20029;-43
2023/08/18 07:36:41;;;;;;;9.93;2.92;;;21.60;99.90;;;;;;5014924;28;20493;-38
2023/08/18 07:39:10;;;;;;;7.10;3.10;;;21.70;99.90;;;;;;5014430;28;20048;-39
2023/08/18 07:41:43;;;;;;;9.57;3.80;;;21.70;99.90;;;;;;5014780;28;20025;-39
2023/08/18 07:44:08;;;;;;;5.65;3.25;;;21.70;99.90;;;;;;5014686;28;20125;-47
2023/08/18 07:46:35;;;;;;;5.55;2.92;;;21.70;99.90;;;;;;5014618;28;20101;-38
2023/08/18 07:49:01;;;;;;;6.10;3.05;;;21.70;99.90;;;;;;5014331;28;20018;-43
2023/08/18 07:51:27;;;;;;;5.30;3.13;;;21.70;99.90;;;;;;5014601;28;20022;-50
2023/08/18 07:53:53;;;;;;;7.70;3.03;;;21.70;99.90;;;;;;5014642;28;20018;-41
2023/08/18 07:56:19;;;;;;;4.40;3.05;;;21.80;99.90;;;;;;4996839;28;20392;-39
2023/08/18 07:58:44;;;;;;;12.45;3.63;;;21.80;99.90;;;;;;5014339;28;20037;-43
2023/08/18 08:01:10;;;;;;;7.13;2.85;;;21.80;99.90;;;;;;5014316;28;20108;-40
2023/08/18 08:03:36;;;;;;;9.45;3.00;;;21.80;99.90;;;;;;5014222;28;20026;-46
2023/08/18 08:06:04;;;;;;;8.43;3.45;;;21.80;99.90;;;;;;5014240;28;20423;-47
2023/08/18 08:08:30;;;;;;;5.05;2.53;;;21.80;99.90;;;;;;5014152;28;20030;-41
2023/08/18 08:10:56;;;;;;;5.55;2.75;;;21.80;99.90;;;;;;5014119;28;20113;-41
2023/08/18 08:13:22;;;;;;;3.80;2.78;;;21.80;99.90;;;;;;5014169;28;20029;-40
2023/08/18 08:15:48;;;;;;;4.13;2.50;;;21.90;99.90;;;;;;5014153;28;20032;-42
2023/08/18 08:18:15;;;;;;;4.97;2.72;;;21.90;99.90;;;;;;5014055;28;20432;-42
2023/08/18 08:20:41;;;;;;;4.50;2.60;;;21.80;99.90;;;;;;5013670;28;20029;-45
2023/08/18 08:23:07;;;;;;;4.38;2.63;;;21.90;99.90;;;;;;5013896;28;20068;-47
2023/08/18 08:25:34;;;;;;;3.95;2.50;;;21.90;99.90;;;;;;5014151;28;20088;-40
2023/08/18 08:28:01;;;;;;;4.60;2.88;;;21.90;99.90;;;;;;4996909;28;20041;-41
2023/08/18 08:30:28;;;;;;;3.88;2.55;;;21.90;99.90;;;;;;5015234;28;20053;-39
2023/08/18 08:32:54;;;;;;;5.50;2.60;;;21.90;99.90;;;;;;5013736;28;20073;-39
2023/08/18 08:35:20;;;;;;;4.28;2.25;;;21.90;99.90;;;;;;5013693;28;20026;-41
2023/08/18 08:37:46;;;;;;;4.38;2.90;;;22.00;99.90;;;;;;5013715;28;20790;-36
2023/08/18 08:40:20;;;;;;;7.53;2.78;;;22.00;99.90;;;;;;5013571;28;20030;-41
2023/08/18 08:42:48;;;;;;;5.78;2.67;;;22.00;99.90;;;;;;5013797;28;20022;-41
2023/08/18 08:45:14;;;;;;;7.30;2.80;;;22.00;99.90;;;;;;5013537;28;20026;-40
2023/08/18 08:47:43;;;;;;;4.00;2.30;;;22.00;99.90;;;;;;5013462;28;20400;-37
2023/08/18 08:50:11;;;;;;;4.47;2.40;;;22.00;99.90;;;;;;5013123;28;20018;-40
2023/08/18 08:52:39;;;;;;;7.97;2.70;;;22.00;99.90;;;;;;5013408;28;20025;-39
2023/08/18 08:55:05;;;;;;;3.83;2.70;;;22.00;99.90;;;;;;5013380;28;20058;-44
2023/08/18 08:57:31;;;;;;;4.45;2.25;;;22.10;99.90;;;;;;5013270;28;20030;-41
2023/08/18 08:59:58;;;;;;;5.82;2.70;;;22.00;99.90;;;;;;5013152;28;20038;-38
2023/08/18 09:02:24;;;;;;;7.25;2.33;;;22.10;99.90;;;;;;5013064;28;20030;-37
2023/08/18 09:04:49;;;;;;;5.70;2.47;;;22.10;99.90;;;;;;5013101;28;20026;-36
2023/08/18 09:07:15;;;;;;;6.15;2.33;;;22.10;99.90;;;;;;5013148;28;20072;-39
2023/08/18 09:09:41;;;;;;;5.25;2.45;;;22.10;99.90;;;;;;5012879;28;20030;-40
2023/08/18 09:12:08;;;;;;;4.13;2.50;;;22.10;99.90;;;;;;5013199;28;20026;-40
2023/08/18 09:14:43;;;;;;;3.88;2.30;;;22.10;99.90;;;;;;5012993;28;20034;-39
2023/08/18 09:17:09;;;;;;;2.88;2.25;;;22.10;99.90;;;;;;5012856;28;20133;-39
2023/08/18 09:19:35;;;;;;;3.72;2.30;;;22.10;99.90;;;;;;5012678;28;20105;-39
2023/08/18 09:22:03;;;;;;;7.20;2.63;;;22.20;99.90;;;;;;5012879;28;20040;-39
2023/08/18 09:24:29;;;;;;;3.92;2.25;;;22.20;99.90;;;;;;5012745;28;20062;-39
2023/08/18 09:27:08;;;;;;;3.75;2.05;;;22.20;99.90;;;;;;4995235;28;20057;-38
2023/08/18 09:29:35;;;;;;;4.35;2.28;;;22.20;99.90;;;;;;5012276;28;20061;-37
2023/08/18 09:32:01;;;;;;;3.92;2.05;;;22.20;99.90;;;;;;5012811;28;20527;-36
2023/08/18 09:34:27;;;;;;;4.43;2.30;;;22.20;99.90;;;;;;5013133;28;20101;-41
2023/08/18 09:36:55;;;;;;;5.55;2.20;;;22.20;99.90;;;;;;5012535;28;20049;-41
2023/08/18 09:39:21;;;;;;;3.30;2.10;;;22.20;99.90;;;;;;5012188;28;20076;-41
2023/08/18 09:41:51;;;;;;;3.33;2.00;;;22.30;99.90;;;;;;4994967;28;20040;-41
2023/08/18 09:44:17;;;;;;;3.22;1.88;;;22.30;99.90;;;;;;5012376;28;20030;-41
2023/08/18 09:46:49;;;;;;;3.72;2.25;;;22.30;99.90;;;;;;5012470;28;20022;-41
2023/08/18 09:49:18;;;;;;;2.17;1.90;;;22.30;99.90;;;;;;5012263;28;20391;-42
2023/08/18 09:51:48;;;;;;;1.98;1.73;;;22.30;99.90;;;;;;5012353;28;20479;-41
2023/08/18 09:54:17;;;;;;;5.45;2.20;;;22.30;99.90;;;;;;5012293;28;20025;-43
2023/08/18 09:56:45;;;;;;;2.83;1.80;;;22.30;99.90;;;;;;5012170;28;20507;-41
2023/08/18 09:59:34;;;;;;;7.95;2.15;;;22.30;99.90;;;;;;5011971;28;20041;-43
2023/08/18 10:02:03;;;;;;;6.78;1.80;;;22.40;99.90;;;;;;5012132;28;20018;-41
2023/08/18 10:04:36;;;;;;;8.30;2.15;;;22.50;99.90;;;;;;5012062;28;20441;-41
2023/08/18 10:07:03;;;;;;;10.23;2.20;;;22.60;99.90;;;;;;5012012;28;20026;-41
2023/08/18 10:09:33;;;;;;;6.72;2.20;;;22.60;99.90;;;;;;4994102;28;20033;-40
2023/08/18 10:12:01;;;;;;;7.30;2.30;;;22.60;99.90;;;;;;5012044;28;20170;-36
2023/08/18 10:14:28;;;;;;;4.03;2.03;;;22.60;99.90;;;;;;5011925;28;20022;-38
2023/08/18 10:16:55;;;;;;;4.00;2.05;;;22.70;99.90;;;;;;5011856;28;20396;-43
2023/08/18 10:19:54;;;;;;;7.75;2.50;;;22.70;99.90;;;;;;5012072;28;20095;-41
2023/08/18 10:22:26;;;;;;;8.70;2.05;;;22.70;99.90;;;;;;5011990;28;20506;-41
2023/08/18 10:24:53;;;;;;;9.73;2.28;;;22.70;99.90;;;;;;5011718;28;20030;-41
2023/08/18 10:27:27;;;;;;;8.23;2.25;;;22.70;99.90;;;;;;5011809;28;20021;-41
2023/08/18 10:30:00;;;;;;;8.40;2.17;;;22.70;99.90;;;;;;5011451;28;20554;-43
2023/08/18 10:32:27;;;;;;;10.20;2.40;;;22.70;99.90;;;;;;4994098;28;20113;-41
2023/08/18 10:34:52;;;;;;;11.07;2.15;;;22.70;99.90;;;;;;5011680;28;20045;-41
2023/08/18 10:37:22;;;;;;;5.32;2.22;;;22.80;99.90;;;;;;5011684;28;20030;-45
2023/08/18 10:39:50;;;;;;;7.85;2.30;;;22.80;99.90;;;;;;5011374;28;20026;-41
2023/08/18 10:42:16;;;;;;;5.50;2.30;;;22.70;99.90;;;;;;5011608;28;20029;-41
2023/08/18 10:44:57;;;;;;;8.35;2.22;;;22.80;99.90;;;;;;5011364;28;20026;-43
2023/08/18 10:47:31;;;;;;;6.55;2.35;;;22.80;99.90;;;;;;5011940;28;20387;-40
2023/08/18 10:50:00;;;;;;;5.28;2.10;;;22.80;99.90;;;;;;5010689;28;20022;-41
2023/08/18 10:52:32;;;;;;;5.50;1.88;;;22.80;99.90;;;;;;5011517;28;20022;-41
2023/08/18 10:54:59;;;;;;;5.32;2.33;;;22.80;99.90;;;;;;5011406;28;20484;-43
2023/08/18 10:57:25;;;;;;;5.22;2.17;;;22.80;99.90;;;;;;5011732;28;20129;-41
2023/08/18 10:59:50;;;;;;;6.55;2.30;;;22.80;99.90;;;;;;5011351;28;20108;-43
2023/08/18 11:02:17;;;;;;;4.90;1.90;;;22.80;99.90;;;;;;5011541;28;20037;-41
2023/08/18 11:04:42;;;;;;;5.28;2.42;;;22.80;99.90;;;;;;5011313;28;20037;-41
2023/08/18 11:07:08;;;;;;;4.53;1.90;;;22.80;99.90;;;;;;5011413;28;20026;-42
2023/08/18 11:09:36;;;;;;;5.30;2.25;;;22.80;99.90;;;;;;5011089;28;20033;-43
2023/08/18 11:12:03;;;;;;;4.75;1.80;;;22.80;99.90;;;;;;5011336;28;20455;-40
2023/08/18 11:14:29;;;;;;;4.50;2.45;;;22.80;99.90;;;;;;5011225;28;20104;-43
2023/08/18 11:16:55;;;;;;;3.15;1.70;;;22.80;99.90;;;;;;5011311;28;20030;-43
2023/08/18 11:19:21;;;;;;;5.38;1.70;;;22.80;99.90;;;;;;5010986;28;20029;-44
2023/08/18 11:21:46;;;;;;;5.65;1.92;;;22.80;99.90;;;;;;5011258;28;20472;-43
2023/08/18 11:24:12;;;;;;;5.13;2.10;;;22.90;99.90;;;;;;5011039;28;20044;-41
2023/08/18 11:26:39;;;;;;;4.60;1.73;;;22.90;99.90;;;;;;5011151;28;20080;-40
2023/08/18 11:29:05;;;;;;;4.35;1.70;;;22.80;99.90;;;;;;5010726;28;20056;-41
2023/08/18 11:31:31;;;;;;;2.95;1.80;;;22.90;99.90;;;;;;5011195;28;20030;-41
2023/08/18 11:33:58;;;;;;;4.57;1.83;;;22.80;99.90;;;;;;5011106;28;20033;-45
2023/08/18 11:36:31;;;;;;;3.67;1.90;;;22.90;99.90;;;;;;5011103;28;20025;-45
2023/08/18 11:39:02;;;;;;;5.10;1.80;;;22.90;99.90;;;;;;5010194;28;20447;-39
2023/08/18 11:41:38;;;;;;;7.03;1.60;;;22.90;99.90;;;;;;5008639;28;20621;-44
2023/08/18 11:44:06;;;;;;;5.38;1.55;;;23.10;99.90;;;;;;5007892;28;20054;-42
2023/08/18 11:46:34;;;;;;;4.15;1.65;;;23.10;99.90;;;;;;5010838;28;20109;-42
2023/08/18 11:49:02;;;;;;;6.82;1.50;;;23.10;99.90;;;;;;5010659;28;20034;-44
2023/08/18 11:51:28;;;;;;;3.72;1.83;;;23.10;99.90;;;;;;5011085;28;20022;-42
2023/08/18 11:53:54;;;;;;;4.60;1.70;;;23.00;99.90;;;;;;5011011;28;20026;-47
2023/08/18 11:56:20;;;;;;;6.82;1.75;;;23.00;99.90;;;;;;5011101;28;20026;-41
2023/08/18 11:58:45;;;;;;;4.55;1.40;;;23.00;99.90;;;;;;5010755;28;20022;-41
2023/08/18 12:01:11;;;;;;;3.45;1.27;;;23.00;99.90;;;;;;5012405;28;20435;-41
2023/08/18 12:03:40;;;;;;;3.70;1.45;;;23.00;99.90;;;;;;5014328;28;20076;-47
2023/08/18 12:06:05;;;;;;;6.15;1.75;;;23.00;99.90;;;;;;5014362;28;20030;-42
2023/08/18 12:08:31;;;;;;;3.65;1.48;;;23.00;99.90;;;;;;4996736;28;20076;-43
2023/08/18 12:10:57;;;;;;;4.32;1.55;;;23.00;99.90;;;;;;5014051;28;20132;-41
2023/08/18 12:13:27;;;;;;;3.63;1.70;;;23.00;99.90;;;;;;5014168;28;20083;-42
2023/08/18 12:15:53;;;;;;;6.22;2.03;;;23.00;99.90;;;;;;5014173;28;20026;-44
2023/08/18 12:18:19;;;;;;;3.58;1.30;;;23.00;99.90;;;;;;5013935;28;20041;-41
2023/08/18 12:20:45;;;;;;;3.60;1.50;;;23.00;99.90;;;;;;5013820;28;20030;-43
2023/08/18 12:23:10;;;;;;;4.70;1.50;;;23.00;99.90;;;;;;5013998;28;20029;-40
2023/08/18 12:25:36;;;;;;;3.38;1.48;;;23.00;99.90;;;;;;5013949;28;20050;-43
2023/08/18 12:28:03;;;;;;;4.60;1.75;;;23.00;99.90;;;;;;5013938;28;20022;-43
2023/08/18 12:30:29;;;;;;;3.35;1.45;;;23.00;99.90;;;;;;5013479;28;20036;-41
2023/08/18 12:32:54;;;;;;;2.97;1.45;;;23.00;99.90;;;;;;5013696;28;20018;-40
2023/08/18 12:35:20;;;;;;;4.25;1.85;;;23.00;99.90;;;;;;5013812;28;20496;-41
2023/08/18 12:37:46;;;;;;;2.58;1.40;;;23.00;99.90;;;;;;5013814;28;20152;-40
2023/08/18 12:40:11;;;;;;;3.15;1.63;;;23.00;99.90;;;;;;5013696;28;20018;-39
2023/08/18 12:42:38;;;;;;;3.22;1.52;;;23.00;99.90;;;;;;5013606;28;20026;-40
2023/08/18 12:45:05;;;;;;;3.00;1.33;;;23.00;99.90;;;;;;5013532;28;20061;-39